Terminal Aerodrome Forecast
Issued by NWS Wilmington, OH

Home | Current Version | Previous Version | Text Only | Print | Product List | Glossary On
Versions: 1 2 3 4 5 6 7 8 9 10 11 12 13 14 15 16
000
FTUS41 KILN 242300
TAFDAY
TAF
KDAY 242336Z 2500/2524 10013KT P6SM SCT130 OVC250
     FM250800 15012KT 5SM -SHRA OVC050
     FM251100 17012KT P6SM VCSH OVC025
     FM251300 21012KT 4SM -SHRA VCTS OVC012CB
     FM251600 30019G29KT P6SM BKN018
     FM252100 30016G26KT P6SM SCT040=

USA.gov is the U.S. government's official web portal to all federal, state and local government web resources and services.